sensor_id;sensor_type;location;lat;lon;timestamp;P1;durP1;ratioP1;P2;durP2;ratioP2
8488;SDS011;4281;45.772;12.852;2022-09-24T00:02:16;5.70;;;5.17;;
8488;SDS011;4281;45.772;12.852;2022-09-24T00:04:45;6.40;;;5.73;;
8488;SDS011;4281;45.772;12.852;2022-09-24T00:07:13;6.83;;;6.13;;
8488;SDS011;4281;45.772;12.852;2022-09-24T00:09:41;6.20;;;5.70;;
8488;SDS011;4281;45.772;12.852;2022-09-24T00:12:09;6.63;;;5.93;;
8488;SDS011;4281;45.772;12.852;2022-09-24T00:14:38;5.27;;;4.67;;
8488;SDS011;4281;45.772;12.852;2022-09-24T00:17:06;6.17;;;5.57;;
8488;SDS011;4281;45.772;12.852;2022-09-24T00:19:36;5.93;;;5.33;;
8488;SDS011;4281;45.772;12.852;2022-09-24T00:22:05;6.40;;;5.80;;
8488;SDS011;4281;45.772;12.852;2022-09-24T00:24:33;6.87;;;5.53;;
8488;SDS011;4281;45.772;12.852;2022-09-24T00:27:19;8.03;;;5.50;;
8488;SDS011;4281;45.772;12.852;2022-09-24T00:29:49;5.83;;;5.00;;
8488;SDS011;4281;45.772;12.852;2022-09-24T00:32:17;5.67;;;5.17;;
8488;SDS011;4281;45.772;12.852;2022-09-24T00:34:50;5.70;;;5.20;;
8488;SDS011;4281;45.772;12.852;2022-09-24T00:37:19;5.70;;;5.20;;
8488;SDS011;4281;45.772;12.852;2022-09-24T00:39:47;5.63;;;5.13;;
8488;SDS011;4281;45.772;12.852;2022-09-24T00:42:17;5.40;;;5.00;;
8488;SDS011;4281;45.772;12.852;2022-09-24T00:44:50;6.17;;;5.43;;
8488;SDS011;4281;45.772;12.852;2022-09-24T00:47:25;5.57;;;5.07;;
8488;SDS011;4281;45.772;12.852;2022-09-24T00:50:03;5.93;;;5.30;;
8488;SDS011;4281;45.772;12.852;2022-09-24T00:52:46;5.77;;;5.27;;
8488;SDS011;4281;45.772;12.852;2022-09-24T00:55:18;6.10;;;5.57;;
8488;SDS011;4281;45.772;12.852;2022-09-24T00:57:49;5.87;;;5.40;;
8488;SDS011;4281;45.772;12.852;2022-09-24T01:00:21;5.33;;;4.93;;
8488;SDS011;4281;45.772;12.852;2022-09-24T01:02:52;6.80;;;5.60;;
8488;SDS011;4281;45.772;12.852;2022-09-24T01:05:25;5.37;;;4.97;;
8488;SDS011;4281;45.772;12.852;2022-09-24T01:07:54;5.77;;;5.00;;
8488;SDS011;4281;45.772;12.852;2022-09-24T01:10:25;6.20;;;5.70;;
8488;SDS011;4281;45.772;12.852;2022-09-24T01:13:41;6.40;;;5.80;;
8488;SDS011;4281;45.772;12.852;2022-09-24T01:16:27;6.53;;;5.20;;
8488;SDS011;4281;45.772;12.852;2022-09-24T01:19:06;6.20;;;5.70;;
8488;SDS011;4281;45.772;12.852;2022-09-24T01:21:43;5.90;;;5.40;;
8488;SDS011;4281;45.772;12.852;2022-09-24T01:27:10;6.17;;;5.60;;
8488;SDS011;4281;45.772;12.852;2022-09-24T01:29:50;6.43;;;5.63;;
8488;SDS011;4281;45.772;12.852;2022-09-24T01:32:27;5.33;;;4.83;;
8488;SDS011;4281;45.772;12.852;2022-09-24T01:34:59;6.00;;;5.47;;
8488;SDS011;4281;45.772;12.852;2022-09-24T01:37:32;5.60;;;5.10;;
8488;SDS011;4281;45.772;12.852;2022-09-24T01:40:04;6.50;;;5.10;;
8488;SDS011;4281;45.772;12.852;2022-09-24T01:42:34;6.03;;;5.53;;
8488;SDS011;4281;45.772;12.852;2022-09-24T01:45:08;5.37;;;4.90;;
8488;SDS011;4281;45.772;12.852;2022-09-24T01:47:38;6.70;;;6.13;;
8488;SDS011;4281;45.772;12.852;2022-09-24T01:50:08;6.70;;;5.57;;
8488;SDS011;4281;45.772;12.852;2022-09-24T01:52:40;5.93;;;5.33;;
8488;SDS011;4281;45.772;12.852;2022-09-24T01:55:12;5.97;;;5.43;;
8488;SDS011;4281;45.772;12.852;2022-09-24T01:57:44;6.20;;;5.60;;
8488;SDS011;4281;45.772;12.852;2022-09-24T02:00:17;5.97;;;5.37;;
8488;SDS011;4281;45.772;12.852;2022-09-24T02:02:48;5.43;;;5.00;;
8488;SDS011;4281;45.772;12.852;2022-09-24T02:05:24;6.83;;;5.33;;
8488;SDS011;4281;45.772;12.852;2022-09-24T02:08:00;6.10;;;5.50;;
8488;SDS011;4281;45.772;12.852;2022-09-24T02:10:35;6.13;;;5.60;;
8488;SDS011;4281;45.772;12.852;2022-09-24T02:13:12;6.37;;;5.77;;
8488;SDS011;4281;45.772;12.852;2022-09-24T02:15:44;6.07;;;5.50;;
8488;SDS011;4281;45.772;12.852;2022-09-24T02:18:16;5.90;;;5.30;;
8488;SDS011;4281;45.772;12.852;2022-09-24T02:20:48;5.60;;;5.10;;
8488;SDS011;4281;45.772;12.852;2022-09-24T02:23:39;6.17;;;5.67;;
8488;SDS011;4281;45.772;12.852;2022-09-24T02:26:11;6.17;;;5.67;;
8488;SDS011;4281;45.772;12.852;2022-09-24T02:28:40;6.20;;;5.70;;
8488;SDS011;4281;45.772;12.852;2022-09-24T02:31:10;6.67;;;6.07;;
8488;SDS011;4281;45.772;12.852;2022-09-24T02:33:41;6.30;;;5.80;;
8488;SDS011;4281;45.772;12.852;2022-09-24T02:36:29;6.30;;;5.80;;
8488;SDS011;4281;45.772;12.852;2022-09-24T02:38:59;5.90;;;5.40;;
8488;SDS011;4281;45.772;12.852;2022-09-24T02:41:28;6.37;;;5.87;;
8488;SDS011;4281;45.772;12.852;2022-09-24T02:43:58;5.77;;;5.37;;
8488;SDS011;4281;45.772;12.852;2022-09-24T02:46:28;6.93;;;6.33;;
8488;SDS011;4281;45.772;12.852;2022-09-24T02:48:56;6.13;;;5.47;;
8488;SDS011;4281;45.772;12.852;2022-09-24T02:51:25;6.20;;;5.70;;
8488;SDS011;4281;45.772;12.852;2022-09-24T02:53:56;6.10;;;5.60;;
8488;SDS011;4281;45.772;12.852;2022-09-24T02:56:25;6.87;;;6.17;;
8488;SDS011;4281;45.772;12.852;2022-09-24T02:58:53;7.03;;;4.97;;
8488;SDS011;4281;45.772;12.852;2022-09-24T03:01:22;7.07;;;5.93;;
8488;SDS011;4281;45.772;12.852;2022-09-24T03:03:52;6.27;;;5.77;;
8488;SDS011;4281;45.772;12.852;2022-09-24T03:06:20;6.10;;;5.60;;
8488;SDS011;4281;45.772;12.852;2022-09-24T03:08:50;6.57;;;6.00;;
8488;SDS011;4281;45.772;12.852;2022-09-24T03:11:18;6.00;;;5.40;;
8488;SDS011;4281;45.772;12.852;2022-09-24T03:13:48;6.23;;;5.43;;
8488;SDS011;4281;45.772;12.852;2022-09-24T03:16:17;7.27;;;5.90;;
8488;SDS011;4281;45.772;12.852;2022-09-24T03:18:46;5.63;;;5.23;;
8488;SDS011;4281;45.772;12.852;2022-09-24T03:23:51;6.03;;;5.53;;
8488;SDS011;4281;45.772;12.852;2022-09-24T03:26:20;6.43;;;5.93;;
8488;SDS011;4281;45.772;12.852;2022-09-24T03:28:48;5.70;;;5.23;;
8488;SDS011;4281;45.772;12.852;2022-09-24T03:31:16;6.27;;;5.70;;
8488;SDS011;4281;45.772;12.852;2022-09-24T03:33:44;6.00;;;5.50;;
8488;SDS011;4281;45.772;12.852;2022-09-24T03:36:13;5.73;;;5.07;;
8488;SDS011;4281;45.772;12.852;2022-09-24T03:38:44;6.80;;;5.63;;
8488;SDS011;4281;45.772;12.852;2022-09-24T03:41:15;5.73;;;5.23;;
8488;SDS011;4281;45.772;12.852;2022-09-24T03:43:44;6.00;;;5.40;;
8488;SDS011;4281;45.772;12.852;2022-09-24T03:46:13;5.90;;;5.40;;
8488;SDS011;4281;45.772;12.852;2022-09-24T03:48:42;6.33;;;5.83;;
8488;SDS011;4281;45.772;12.852;2022-09-24T03:51:13;5.77;;;5.37;;
8488;SDS011;4281;45.772;12.852;2022-09-24T03:53:44;6.43;;;5.93;;
8488;SDS011;4281;45.772;12.852;2022-09-24T03:56:12;6.27;;;5.67;;
8488;SDS011;4281;45.772;12.852;2022-09-24T03:58:42;6.90;;;6.20;;
8488;SDS011;4281;45.772;12.852;2022-09-24T04:01:13;6.63;;;6.00;;
8488;SDS011;4281;45.772;12.852;2022-09-24T04:03:47;6.27;;;5.70;;
8488;SDS011;4281;45.772;12.852;2022-09-24T04:06:15;6.47;;;5.83;;
8488;SDS011;4281;45.772;12.852;2022-09-24T04:08:50;6.73;;;6.03;;
8488;SDS011;4281;45.772;12.852;2022-09-24T04:11:19;7.00;;;6.33;;
8488;SDS011;4281;45.772;12.852;2022-09-24T04:13:49;6.37;;;5.73;;
8488;SDS011;4281;45.772;12.852;2022-09-24T04:16:17;6.70;;;6.20;;
8488;SDS011;4281;45.772;12.852;2022-09-24T04:18:45;6.60;;;6.00;;
8488;SDS011;4281;45.772;12.852;2022-09-24T04:23:53;6.43;;;5.93;;
8488;SDS011;4281;45.772;12.852;2022-09-24T04:26:21;6.83;;;6.17;;
8488;SDS011;4281;45.772;12.852;2022-09-24T04:28:51;7.10;;;6.50;;
8488;SDS011;4281;45.772;12.852;2022-09-24T04:31:19;9.17;;;6.70;;
8488;SDS011;4281;45.772;12.852;2022-09-24T04:33:48;6.77;;;6.13;;
8488;SDS011;4281;45.772;12.852;2022-09-24T04:36:17;7.63;;;6.87;;
8488;SDS011;4281;45.772;12.852;2022-09-24T04:38:46;7.30;;;6.50;;
8488;SDS011;4281;45.772;12.852;2022-09-24T04:41:14;6.73;;;6.13;;
8488;SDS011;4281;45.772;12.852;2022-09-24T04:43:42;7.10;;;6.17;;
8488;SDS011;4281;45.772;12.852;2022-09-24T04:46:13;6.97;;;6.37;;
8488;SDS011;4281;45.772;12.852;2022-09-24T04:48:43;6.63;;;6.03;;
8488;SDS011;4281;45.772;12.852;2022-09-24T04:51:12;6.57;;;5.97;;
8488;SDS011;4281;45.772;12.852;2022-09-24T04:53:41;6.93;;;6.27;;
8488;SDS011;4281;45.772;12.852;2022-09-24T04:56:13;7.63;;;6.00;;
8488;SDS011;4281;45.772;12.852;2022-09-24T04:58:41;7.13;;;6.53;;
8488;SDS011;4281;45.772;12.852;2022-09-24T05:01:09;8.43;;;6.47;;
8488;SDS011;4281;45.772;12.852;2022-09-24T05:03:40;7.63;;;6.83;;
8488;SDS011;4281;45.772;12.852;2022-09-24T05:06:09;7.67;;;6.87;;
8488;SDS011;4281;45.772;12.852;2022-09-24T05:08:37;8.37;;;7.07;;
8488;SDS011;4281;45.772;12.852;2022-09-24T05:11:06;9.00;;;6.60;;
8488;SDS011;4281;45.772;12.852;2022-09-24T05:13:34;7.70;;;7.10;;
8488;SDS011;4281;45.772;12.852;2022-09-24T05:16:03;7.50;;;6.90;;
8488;SDS011;4281;45.772;12.852;2022-09-24T05:18:31;7.33;;;6.43;;
8488;SDS011;4281;45.772;12.852;2022-09-24T05:21:01;7.37;;;6.77;;
8488;SDS011;4281;45.772;12.852;2022-09-24T05:23:30;7.30;;;6.60;;
8488;SDS011;4281;45.772;12.852;2022-09-24T05:25:58;8.00;;;7.20;;
8488;SDS011;4281;45.772;12.852;2022-09-24T05:28:43;7.43;;;6.67;;
8488;SDS011;4281;45.772;12.852;2022-09-24T05:31:11;8.10;;;7.20;;
8488;SDS011;4281;45.772;12.852;2022-09-24T05:33:40;7.67;;;6.97;;
8488;SDS011;4281;45.772;12.852;2022-09-24T05:36:09;7.20;;;6.60;;
8488;SDS011;4281;45.772;12.852;2022-09-24T05:38:37;8.10;;;7.30;;
8488;SDS011;4281;45.772;12.852;2022-09-24T05:41:07;7.63;;;6.90;;
8488;SDS011;4281;45.772;12.852;2022-09-24T05:43:36;8.57;;;7.50;;
8488;SDS011;4281;45.772;12.852;2022-09-24T05:46:04;9.00;;;7.37;;
8488;SDS011;4281;45.772;12.852;2022-09-24T05:48:33;7.60;;;6.90;;
8488;SDS011;4281;45.772;12.852;2022-09-24T05:51:02;8.03;;;7.33;;
8488;SDS011;4281;45.772;12.852;2022-09-24T05:53:32;8.53;;;7.73;;
8488;SDS011;4281;45.772;12.852;2022-09-24T05:56:00;7.90;;;7.23;;
8488;SDS011;4281;45.772;12.852;2022-09-24T05:58:28;8.37;;;7.67;;
8488;SDS011;4281;45.772;12.852;2022-09-24T06:00:57;7.43;;;6.70;;
8488;SDS011;4281;45.772;12.852;2022-09-24T06:03:27;9.03;;;7.20;;
8488;SDS011;4281;45.772;12.852;2022-09-24T06:05:57;6.90;;;6.07;;
8488;SDS011;4281;45.772;12.852;2022-09-24T06:08:27;7.67;;;7.00;;
8488;SDS011;4281;45.772;12.852;2022-09-24T06:10:59;7.20;;;5.97;;
8488;SDS011;4281;45.772;12.852;2022-09-24T06:13:28;6.77;;;6.27;;
8488;SDS011;4281;45.772;12.852;2022-09-24T06:15:59;7.33;;;6.63;;
8488;SDS011;4281;45.772;12.852;2022-09-24T06:18:28;6.70;;;6.10;;
8488;SDS011;4281;45.772;12.852;2022-09-24T06:20:59;6.33;;;5.73;;
8488;SDS011;4281;45.772;12.852;2022-09-24T06:23:28;6.17;;;5.57;;
8488;SDS011;4281;45.772;12.852;2022-09-24T06:25:58;6.53;;;6.03;;
8488;SDS011;4281;45.772;12.852;2022-09-24T06:28:27;7.60;;;6.93;;
8488;SDS011;4281;45.772;12.852;2022-09-24T06:30:57;6.43;;;5.83;;
8488;SDS011;4281;45.772;12.852;2022-09-24T06:33:26;6.77;;;5.97;;
8488;SDS011;4281;45.772;12.852;2022-09-24T06:35:58;6.20;;;5.60;;
8488;SDS011;4281;45.772;12.852;2022-09-24T06:38:27;6.80;;;6.10;;
8488;SDS011;4281;45.772;12.852;2022-09-24T06:40:58;6.43;;;5.70;;
8488;SDS011;4281;45.772;12.852;2022-09-24T06:43:29;6.40;;;5.90;;
8488;SDS011;4281;45.772;12.852;2022-09-24T06:45:58;7.20;;;6.27;;
8488;SDS011;4281;45.772;12.852;2022-09-24T06:48:27;6.50;;;5.90;;
8488;SDS011;4281;45.772;12.852;2022-09-24T06:50:56;6.73;;;5.77;;
8488;SDS011;4281;45.772;12.852;2022-09-24T06:53:24;7.13;;;6.43;;
8488;SDS011;4281;45.772;12.852;2022-09-24T06:55:55;6.40;;;5.80;;
8488;SDS011;4281;45.772;12.852;2022-09-24T06:58:26;6.40;;;5.80;;
8488;SDS011;4281;45.772;12.852;2022-09-24T07:00:54;6.87;;;5.93;;
8488;SDS011;4281;45.772;12.852;2022-09-24T07:03:24;7.30;;;6.03;;
8488;SDS011;4281;45.772;12.852;2022-09-24T07:05:53;9.67;;;6.47;;
8488;SDS011;4281;45.772;12.852;2022-09-24T07:08:22;7.60;;;6.10;;
8488;SDS011;4281;45.772;12.852;2022-09-24T07:10:51;6.03;;;5.33;;
8488;SDS011;4281;45.772;12.852;2022-09-24T07:13:19;6.00;;;5.50;;
8488;SDS011;4281;45.772;12.852;2022-09-24T07:15:49;6.27;;;5.43;;
8488;SDS011;4281;45.772;12.852;2022-09-24T07:18:19;5.80;;;5.30;;
8488;SDS011;4281;45.772;12.852;2022-09-24T07:20:50;6.97;;;5.47;;
8488;SDS011;4281;45.772;12.852;2022-09-24T07:23:19;5.30;;;4.80;;
8488;SDS011;4281;45.772;12.852;2022-09-24T07:25:48;9.20;;;5.07;;
8488;SDS011;4281;45.772;12.852;2022-09-24T07:28:17;5.97;;;5.37;;
8488;SDS011;4281;45.772;12.852;2022-09-24T07:30:45;6.47;;;4.80;;
8488;SDS011;4281;45.772;12.852;2022-09-24T07:33:15;5.93;;;5.00;;
8488;SDS011;4281;45.772;12.852;2022-09-24T07:35:43;6.00;;;5.10;;
8488;SDS011;4281;45.772;12.852;2022-09-24T07:38:11;6.03;;;5.37;;
8488;SDS011;4281;45.772;12.852;2022-09-24T07:40:42;7.40;;;5.50;;
8488;SDS011;4281;45.772;12.852;2022-09-24T07:43:10;5.30;;;4.80;;
8488;SDS011;4281;45.772;12.852;2022-09-24T07:45:40;5.80;;;5.07;;
8488;SDS011;4281;45.772;12.852;2022-09-24T07:48:09;6.80;;;6.17;;
8488;SDS011;4281;45.772;12.852;2022-09-24T07:50:39;7.60;;;5.77;;
8488;SDS011;4281;45.772;12.852;2022-09-24T07:53:09;5.83;;;5.33;;
8488;SDS011;4281;45.772;12.852;2022-09-24T07:55:40;6.00;;;5.37;;
8488;SDS011;4281;45.772;12.852;2022-09-24T07:58:10;5.27;;;4.87;;
8488;SDS011;4281;45.772;12.852;2022-09-24T08:00:39;4.93;;;4.53;;
8488;SDS011;4281;45.772;12.852;2022-09-24T08:03:08;7.37;;;5.00;;
8488;SDS011;4281;45.772;12.852;2022-09-24T08:05:42;5.40;;;5.00;;
8488;SDS011;4281;45.772;12.852;2022-09-24T08:08:11;6.50;;;5.40;;
8488;SDS011;4281;45.772;12.852;2022-09-24T08:10:40;9.30;;;5.60;;
8488;SDS011;4281;45.772;12.852;2022-09-24T08:13:08;5.97;;;5.47;;
8488;SDS011;4281;45.772;12.852;2022-09-24T08:15:37;5.97;;;5.47;;
8488;SDS011;4281;45.772;12.852;2022-09-24T08:18:05;6.90;;;6.20;;
8488;SDS011;4281;45.772;12.852;2022-09-24T08:20:35;7.70;;;6.77;;
8488;SDS011;4281;45.772;12.852;2022-09-24T08:23:06;9.07;;;6.50;;
8488;SDS011;4281;45.772;12.852;2022-09-24T08:25:36;8.37;;;6.87;;
8488;SDS011;4281;45.772;12.852;2022-09-24T08:28:05;9.40;;;7.53;;
8488;SDS011;4281;45.772;12.852;2022-09-24T08:30:34;8.50;;;6.80;;
8488;SDS011;4281;45.772;12.852;2022-09-24T08:33:03;7.10;;;6.17;;
8488;SDS011;4281;45.772;12.852;2022-09-24T08:35:32;8.07;;;5.30;;
8488;SDS011;4281;45.772;12.852;2022-09-24T08:38:01;8.87;;;5.40;;
8488;SDS011;4281;45.772;12.852;2022-09-24T08:40:32;10.07;;;6.70;;
8488;SDS011;4281;45.772;12.852;2022-09-24T08:43:07;11.10;;;7.27;;
8488;SDS011;4281;45.772;12.852;2022-09-24T08:45:47;10.73;;;8.43;;
8488;SDS011;4281;45.772;12.852;2022-09-24T08:48:38;10.10;;;8.17;;
8488;SDS011;4281;45.772;12.852;2022-09-24T08:51:12;9.70;;;7.07;;
8488;SDS011;4281;45.772;12.852;2022-09-24T08:53:45;6.40;;;5.80;;
8488;SDS011;4281;45.772;12.852;2022-09-24T08:56:23;6.47;;;5.57;;
8488;SDS011;4281;45.772;12.852;2022-09-24T08:58:55;5.50;;;4.90;;
8488;SDS011;4281;45.772;12.852;2022-09-24T09:01:30;7.20;;;5.10;;
8488;SDS011;4281;45.772;12.852;2022-09-24T09:04:12;5.00;;;4.23;;
8488;SDS011;4281;45.772;12.852;2022-09-24T09:06:54;5.07;;;4.33;;
8488;SDS011;4281;45.772;12.852;2022-09-24T09:09:33;4.87;;;4.33;;
8488;SDS011;4281;45.772;12.852;2022-09-24T09:12:11;6.90;;;4.50;;
8488;SDS011;4281;45.772;12.852;2022-09-24T09:14:45;6.93;;;4.67;;
8488;SDS011;4281;45.772;12.852;2022-09-24T09:17:22;7.57;;;4.60;;
8488;SDS011;4281;45.772;12.852;2022-09-24T09:19:59;7.73;;;4.23;;
8488;SDS011;4281;45.772;12.852;2022-09-24T09:22:33;4.90;;;4.30;;
8488;SDS011;4281;45.772;12.852;2022-09-24T09:25:11;4.60;;;4.13;;
8488;SDS011;4281;45.772;12.852;2022-09-24T09:27:47;4.57;;;3.70;;
8488;SDS011;4281;45.772;12.852;2022-09-24T09:30:18;4.30;;;3.80;;
8488;SDS011;4281;45.772;12.852;2022-09-24T09:32:52;5.40;;;4.10;;
8488;SDS011;4281;45.772;12.852;2022-09-24T09:35:35;5.33;;;3.70;;
8488;SDS011;4281;45.772;12.852;2022-09-24T09:38:13;5.07;;;3.83;;
8488;SDS011;4281;45.772;12.852;2022-09-24T09:40:51;7.43;;;3.37;;
8488;SDS011;4281;45.772;12.852;2022-09-24T09:43:27;3.93;;;3.30;;
8488;SDS011;4281;45.772;12.852;2022-09-24T09:46:02;7.00;;;3.10;;
8488;SDS011;4281;45.772;12.852;2022-09-24T09:48:40;3.83;;;2.57;;
8488;SDS011;4281;45.772;12.852;2022-09-24T09:51:15;3.93;;;3.17;;
8488;SDS011;4281;45.772;12.852;2022-09-24T09:53:52;3.00;;;2.50;;
8488;SDS011;4281;45.772;12.852;2022-09-24T09:56:22;4.43;;;3.00;;
8488;SDS011;4281;45.772;12.852;2022-09-24T09:59:01;7.27;;;2.73;;
8488;SDS011;4281;45.772;12.852;2022-09-24T10:01:33;2.63;;;2.20;;
8488;SDS011;4281;45.772;12.852;2022-09-24T10:04:03;3.33;;;2.17;;
8488;SDS011;4281;45.772;12.852;2022-09-24T10:06:32;2.57;;;2.37;;
8488;SDS011;4281;45.772;12.852;2022-09-24T10:09:05;2.57;;;2.37;;
8488;SDS011;4281;45.772;12.852;2022-09-24T10:11:38;4.07;;;2.37;;
8488;SDS011;4281;45.772;12.852;2022-09-24T10:14:09;5.60;;;2.27;;
8488;SDS011;4281;45.772;12.852;2022-09-24T10:16:40;3.57;;;2.33;;
8488;SDS011;4281;45.772;12.852;2022-09-24T10:19:14;5.80;;;2.67;;
8488;SDS011;4281;45.772;12.852;2022-09-24T10:21:45;4.90;;;2.40;;
8488;SDS011;4281;45.772;12.852;2022-09-24T10:24:14;5.00;;;2.37;;
8488;SDS011;4281;45.772;12.852;2022-09-24T10:26:46;2.20;;;2.00;;
8488;SDS011;4281;45.772;12.852;2022-09-24T10:29:17;4.70;;;2.20;;
8488;SDS011;4281;45.772;12.852;2022-09-24T10:32:06;2.77;;;2.23;;
8488;SDS011;4281;45.772;12.852;2022-09-24T10:34:41;2.13;;;1.93;;
8488;SDS011;4281;45.772;12.852;2022-09-24T10:37:21;4.07;;;2.20;;
8488;SDS011;4281;45.772;12.852;2022-09-24T10:39:56;2.70;;;2.47;;
8488;SDS011;4281;45.772;12.852;2022-09-24T10:42:25;2.27;;;2.07;;
8488;SDS011;4281;45.772;12.852;2022-09-24T10:44:57;2.40;;;1.93;;
8488;SDS011;4281;45.772;12.852;2022-09-24T10:47:29;4.17;;;2.23;;
8488;SDS011;4281;45.772;12.852;2022-09-24T10:50:12;2.33;;;2.20;;
8488;SDS011;4281;45.772;12.852;2022-09-24T10:52:51;3.77;;;2.30;;
8488;SDS011;4281;45.772;12.852;2022-09-24T10:55:24;2.57;;;2.37;;
8488;SDS011;4281;45.772;12.852;2022-09-24T10:58:11;4.17;;;2.10;;
8488;SDS011;4281;45.772;12.852;2022-09-24T11:00:57;3.70;;;2.20;;
8488;SDS011;4281;45.772;12.852;2022-09-24T11:03:44;3.73;;;2.90;;
8488;SDS011;4281;45.772;12.852;2022-09-24T11:06:30;6.13;;;2.87;;
8488;SDS011;4281;45.772;12.852;2022-09-24T11:09:12;3.97;;;2.97;;
8488;SDS011;4281;45.772;12.852;2022-09-24T11:11:51;3.67;;;3.33;;
8488;SDS011;4281;45.772;12.852;2022-09-24T11:14:34;4.00;;;3.00;;
8488;SDS011;4281;45.772;12.852;2022-09-24T11:17:22;3.07;;;2.83;;
8488;SDS011;4281;45.772;12.852;2022-09-24T11:23:00;3.13;;;2.50;;
8488;SDS011;4281;45.772;12.852;2022-09-24T11:25:57;3.17;;;2.50;;
8488;SDS011;4281;45.772;12.852;2022-09-24T11:28:43;5.73;;;2.97;;
8488;SDS011;4281;45.772;12.852;2022-09-24T11:31:30;4.07;;;2.50;;
8488;SDS011;4281;45.772;12.852;2022-09-24T11:34:09;5.33;;;2.77;;
8488;SDS011;4281;45.772;12.852;2022-09-24T11:36:52;3.07;;;2.43;;
8488;SDS011;4281;45.772;12.852;2022-09-24T11:39:38;4.47;;;2.80;;
8488;SDS011;4281;45.772;12.852;2022-09-24T11:42:17;2.77;;;2.57;;
8488;SDS011;4281;45.772;12.852;2022-09-24T11:47:58;2.73;;;2.40;;
8488;SDS011;4281;45.772;12.852;2022-09-24T11:50:42;3.97;;;2.50;;
8488;SDS011;4281;45.772;12.852;2022-09-24T11:53:24;3.63;;;2.53;;
8488;SDS011;4281;45.772;12.852;2022-09-24T11:55:58;3.03;;;2.60;;
8488;SDS011;4281;45.772;12.852;2022-09-24T11:58:39;3.37;;;2.60;;
8488;SDS011;4281;45.772;12.852;2022-09-24T12:01:13;3.13;;;2.17;;
8488;SDS011;4281;45.772;12.852;2022-09-24T12:03:46;5.40;;;2.53;;
8488;SDS011;4281;45.772;12.852;2022-09-24T12:06:25;4.40;;;2.57;;
8488;SDS011;4281;45.772;12.852;2022-09-24T12:08:58;2.90;;;2.60;;
8488;SDS011;4281;45.772;12.852;2022-09-24T12:11:34;3.37;;;2.50;;
8488;SDS011;4281;45.772;12.852;2022-09-24T12:14:10;4.07;;;2.57;;
8488;SDS011;4281;45.772;12.852;2022-09-24T12:16:44;2.63;;;2.43;;
8488;SDS011;4281;45.772;12.852;2022-09-24T12:19:15;3.90;;;2.40;;
8488;SDS011;4281;45.772;12.852;2022-09-24T12:21:49;2.43;;;2.17;;
8488;SDS011;4281;45.772;12.852;2022-09-24T12:24:25;2.73;;;2.20;;
8488;SDS011;4281;45.772;12.852;2022-09-24T12:27:00;4.77;;;2.40;;
8488;SDS011;4281;45.772;12.852;2022-09-24T12:29:37;2.63;;;2.17;;
8488;SDS011;4281;45.772;12.852;2022-09-24T12:32:37;3.30;;;2.33;;
8488;SDS011;4281;45.772;12.852;2022-09-24T12:35:29;2.67;;;2.10;;
8488;SDS011;4281;45.772;12.852;2022-09-24T12:38:05;2.40;;;2.20;;
8488;SDS011;4281;45.772;12.852;2022-09-24T12:40:51;2.23;;;2.03;;
8488;SDS011;4281;45.772;12.852;2022-09-24T12:43:41;3.97;;;2.80;;
8488;SDS011;4281;45.772;12.852;2022-09-24T12:46:15;3.93;;;2.80;;
8488;SDS011;4281;45.772;12.852;2022-09-24T12:48:46;3.60;;;2.57;;
8488;SDS011;4281;45.772;12.852;2022-09-24T12:51:16;2.63;;;2.43;;
8488;SDS011;4281;45.772;12.852;2022-09-24T12:53:55;2.90;;;2.67;;
8488;SDS011;4281;45.772;12.852;2022-09-24T12:56:26;2.93;;;2.60;;
8488;SDS011;4281;45.772;12.852;2022-09-24T12:58:56;4.33;;;2.63;;
8488;SDS011;4281;45.772;12.852;2022-09-24T13:01:26;3.90;;;2.57;;
8488;SDS011;4281;45.772;12.852;2022-09-24T13:04:01;2.83;;;2.53;;
8488;SDS011;4281;45.772;12.852;2022-09-24T13:06:49;4.07;;;2.63;;
8488;SDS011;4281;45.772;12.852;2022-09-24T13:09:35;5.20;;;2.77;;
8488;SDS011;4281;45.772;12.852;2022-09-24T13:12:17;5.57;;;2.50;;
8488;SDS011;4281;45.772;12.852;2022-09-24T13:14:48;4.37;;;2.80;;
8488;SDS011;4281;45.772;12.852;2022-09-24T13:17:21;5.27;;;2.40;;
8488;SDS011;4281;45.772;12.852;2022-09-24T13:19:55;4.67;;;2.60;;
8488;SDS011;4281;45.772;12.852;2022-09-24T13:27:56;4.17;;;2.53;;
8488;SDS011;4281;45.772;12.852;2022-09-24T13:30:31;3.00;;;2.60;;
8488;SDS011;4281;45.772;12.852;2022-09-24T13:33:08;7.47;;;2.73;;
8488;SDS011;4281;45.772;12.852;2022-09-24T13:35:49;4.30;;;2.57;;
8488;SDS011;4281;45.772;12.852;2022-09-24T13:38:28;3.80;;;2.53;;
8488;SDS011;4281;45.772;12.852;2022-09-24T13:41:02;4.17;;;2.80;;
8488;SDS011;4281;45.772;12.852;2022-09-24T13:43:42;3.97;;;2.93;;
8488;SDS011;4281;45.772;12.852;2022-09-24T13:46:16;3.37;;;2.77;;
8488;SDS011;4281;45.772;12.852;2022-09-24T13:48:48;3.80;;;2.60;;
8488;SDS011;4281;45.772;12.852;2022-09-24T13:51:19;3.17;;;2.50;;
8488;SDS011;4281;45.772;12.852;2022-09-24T13:53:55;4.13;;;2.40;;
8488;SDS011;4281;45.772;12.852;2022-09-24T13:56:30;2.53;;;2.20;;
8488;SDS011;4281;45.772;12.852;2022-09-24T13:59:01;2.77;;;2.50;;
8488;SDS011;4281;45.772;12.852;2022-09-24T14:01:34;3.77;;;2.20;;
8488;SDS011;4281;45.772;12.852;2022-09-24T14:04:06;3.00;;;2.20;;
8488;SDS011;4281;45.772;12.852;2022-09-24T14:06:47;3.67;;;2.33;;
8488;SDS011;4281;45.772;12.852;2022-09-24T14:09:27;2.37;;;2.03;;
8488;SDS011;4281;45.772;12.852;2022-09-24T14:11:59;4.43;;;2.20;;
8488;SDS011;4281;45.772;12.852;2022-09-24T14:14:29;4.80;;;2.20;;
8488;SDS011;4281;45.772;12.852;2022-09-24T14:17:05;3.10;;;2.00;;
8488;SDS011;4281;45.772;12.852;2022-09-24T14:19:33;4.20;;;2.33;;
8488;SDS011;4281;45.772;12.852;2022-09-24T14:22:02;2.67;;;2.17;;
8488;SDS011;4281;45.772;12.852;2022-09-24T14:24:33;2.63;;;2.17;;
8488;SDS011;4281;45.772;12.852;2022-09-24T14:27:10;2.93;;;2.20;;
8488;SDS011;4281;45.772;12.852;2022-09-24T14:29:43;3.30;;;2.13;;
8488;SDS011;4281;45.772;12.852;2022-09-24T14:32:19;2.90;;;2.27;;
8488;SDS011;4281;45.772;12.852;2022-09-24T14:34:51;2.30;;;2.10;;
8488;SDS011;4281;45.772;12.852;2022-09-24T14:37:23;3.97;;;2.40;;
8488;SDS011;4281;45.772;12.852;2022-09-24T14:39:58;3.70;;;2.67;;
8488;SDS011;4281;45.772;12.852;2022-09-24T14:42:32;2.67;;;2.30;;
8488;SDS011;4281;45.772;12.852;2022-09-24T14:45:06;3.13;;;2.13;;
8488;SDS011;4281;45.772;12.852;2022-09-24T14:47:35;5.87;;;2.37;;
8488;SDS011;4281;45.772;12.852;2022-09-24T14:53:00;8.73;;;4.50;;
8488;SDS011;4281;45.772;12.852;2022-09-24T14:55:38;6.03;;;3.87;;
8488;SDS011;4281;45.772;12.852;2022-09-24T14:58:30;6.30;;;4.20;;
8488;SDS011;4281;45.772;12.852;2022-09-24T15:01:02;6.23;;;4.40;;
8488;SDS011;4281;45.772;12.852;2022-09-24T15:03:36;4.33;;;3.63;;
8488;SDS011;4281;45.772;12.852;2022-09-24T15:06:12;6.57;;;3.93;;
8488;SDS011;4281;45.772;12.852;2022-09-24T15:08:51;5.97;;;4.23;;
8488;SDS011;4281;45.772;12.852;2022-09-24T15:11:23;5.90;;;4.73;;
8488;SDS011;4281;45.772;12.852;2022-09-24T15:13:59;9.57;;;6.40;;
8488;SDS011;4281;45.772;12.852;2022-09-24T15:16:30;13.57;;;9.33;;
8488;SDS011;4281;45.772;12.852;2022-09-24T15:19:13;14.83;;;11.60;;
8488;SDS011;4281;45.772;12.852;2022-09-24T15:21:45;14.83;;;11.20;;
8488;SDS011;4281;45.772;12.852;2022-09-24T15:24:18;8.80;;;6.97;;
8488;SDS011;4281;45.772;12.852;2022-09-24T15:26:59;7.33;;;4.80;;
8488;SDS011;4281;45.772;12.852;2022-09-24T15:29:30;5.20;;;3.73;;
8488;SDS011;4281;45.772;12.852;2022-09-24T15:31:58;5.83;;;3.50;;
8488;SDS011;4281;45.772;12.852;2022-09-24T15:34:27;7.43;;;4.40;;
8488;SDS011;4281;45.772;12.852;2022-09-24T15:36:56;5.83;;;4.17;;
8488;SDS011;4281;45.772;12.852;2022-09-24T15:39:26;5.13;;;4.63;;
8488;SDS011;4281;45.772;12.852;2022-09-24T15:41:57;10.37;;;6.50;;
8488;SDS011;4281;45.772;12.852;2022-09-24T15:44:31;7.90;;;6.67;;
8488;SDS011;4281;45.772;12.852;2022-09-24T15:46:59;10.97;;;6.47;;
8488;SDS011;4281;45.772;12.852;2022-09-24T15:49:27;8.40;;;7.40;;
8488;SDS011;4281;45.772;12.852;2022-09-24T15:51:58;8.37;;;6.43;;
8488;SDS011;4281;45.772;12.852;2022-09-24T15:54:29;10.47;;;7.23;;
8488;SDS011;4281;45.772;12.852;2022-09-24T15:56:57;8.83;;;7.17;;
8488;SDS011;4281;45.772;12.852;2022-09-24T15:59:26;10.20;;;7.53;;